Time;durP1;ratioP1;P1;durP2;ratioP2;P2;SDS_P1;SDS_P2;PMS_P1;PMS_P2;Temp;Humidity;BMP_temperature;BMP_pressure;BME280_temperature;BME280_humidity;BME280_pressure;Samples;Min_cycle;Max_cycle;Signal;HPM_P1;HPM_P2
2023/09/18 00:02:24;;;;;;;43.50;25.58;;;;;;;-146.27;87.28;81002.38;5049670;28;20033;-68
2023/09/18 00:04:49;;;;;;;45.70;26.33;;;;;;;-146.27;87.34;81010.41;5047656;28;20059;-69
2023/09/18 00:07:14;;;;;;;43.53;24.98;;;;;;;-146.27;87.48;81058.59;5046237;28;20128;-68
2023/09/18 00:09:40;;;;;;;35.33;22.35;;;;;;;-146.27;87.23;81018.44;5048838;28;20086;-67
2023/09/18 00:12:06;;;;;;;40.20;23.05;;;;;;;-146.27;87.12;81022.44;5046547;28;20384;-68
2023/09/18 00:14:32;;;;;;;42.70;24.20;;;;;;;-146.27;87.32;81002.38;5043337;28;20110;-69
2023/09/18 00:16:57;;;;;;;41.83;24.83;;;;;;;-146.27;87.16;80986.31;5045730;28;20428;-69
2023/09/18 00:19:23;;;;;;;39.65;24.25;;;;;;;-146.27;87.13;80972.25;5034892;28;20551;-68
2023/09/18 00:21:49;;;;;;;40.10;24.02;;;;;;;-146.27;87.14;81012.41;5044332;28;20086;-69
2023/09/18 00:24:14;;;;;;;34.70;23.50;;;;;;;-146.27;87.25;80996.34;5041890;28;20025;-68
2023/09/18 00:26:40;;;;;;;37.88;23.90;;;;;;;-146.27;87.27;80978.28;5039097;28;20022;-67
2023/09/18 00:29:05;;;;;;;37.97;22.45;;;;;;;-146.27;87.10;80970.25;5048202;28;20021;-68
2023/09/18 00:31:30;;;;;;;38.97;23.77;;;;;;;-146.27;87.13;80962.22;5049880;28;20493;-68
2023/09/18 00:33:56;;;;;;;36.25;23.42;;;;;;;-146.27;87.14;80968.22;5048285;28;20017;-69
2023/09/18 00:36:21;;;;;;;40.10;23.58;;;;;;;-146.27;87.05;80978.28;5037716;28;20025;-68
2023/09/18 00:38:47;;;;;;;36.05;22.50;;;;;;;-146.27;87.07;80920.03;5040062;28;20025;-69
2023/09/18 00:41:12;;;;;;;41.00;23.50;;;;;;;-146.27;86.88;80940.13;5044316;28;20022;-68
2023/09/18 00:43:38;;;;;;;41.55;23.92;;;;;;;-146.27;87.06;80948.16;5049848;28;20531;-68
2023/09/18 00:46:03;;;;;;;40.20;25.95;;;;;;;-146.27;86.86;80972.25;5048543;28;20017;-68
2023/09/18 00:48:29;;;;;;;37.15;23.80;;;;;;;-146.27;87.05;80948.16;5048029;28;20021;-68
2023/09/18 00:50:56;;;;;;;43.33;23.60;;;;;;;-146.27;86.84;80942.13;5047377;28;20029;-69
2023/09/18 00:53:24;;;;;;;42.58;24.10;;;;;;;-146.27;87.05;80962.22;5038860;28;20041;-69
2023/09/18 00:55:57;;;;;;;30.90;20.17;;;;;;;-146.27;86.92;80956.19;5045560;28;20135;-68
2023/09/18 00:58:23;;;;;;;33.63;22.30;;;;;;;-146.27;86.99;81000.34;5043701;28;20043;-68
2023/09/18 01:00:52;;;;;;;39.63;23.33;;;;;;;-146.27;86.61;81014.41;5037178;28;20028;-69
2023/09/18 01:03:20;;;;;;;35.55;23.50;;;;;;;-146.27;86.78;80978.28;5041802;28;20039;-70
2023/09/18 01:05:46;;;;;;;33.75;23.20;;;;;;;-146.27;86.73;80970.25;5045980;28;20056;-69
2023/09/18 01:08:12;;;;;;;33.60;21.98;;;;;;;-146.27;86.83;81006.38;5049050;28;20067;-68
2023/09/18 01:10:49;;;;;;;35.75;24.30;;;;;;;-146.27;86.89;80970.25;5050013;28;20013;-68
2023/09/18 01:13:21;;;;;;;36.38;23.27;;;;;;;-146.27;87.17;80960.19;5047804;28;20029;-69
2023/09/18 01:15:57;;;;;;;37.55;25.30;;;;;;;-146.27;87.02;80950.16;5046301;28;20049;-69
2023/09/18 01:18:22;;;;;;;43.95;25.15;;;;;;;-146.27;86.75;80899.97;5048413;28;20119;-69
2023/09/18 01:20:47;;;;;;;40.13;24.38;;;;;;;-146.27;86.71;80916.03;5046736;28;20056;-67
2023/09/18 01:23:13;;;;;;;42.47;24.98;;;;;;;-146.27;86.71;80930.06;5034713;28;20033;-68
2023/09/18 01:25:38;;;;;;;43.22;24.77;;;;;;;-146.27;86.88;80912.00;5044146;28;20104;-67
2023/09/18 01:28:04;;;;;;;37.13;22.38;;;;;;;-146.27;86.46;80867.81;5039262;28;20025;-69
2023/09/18 01:30:29;;;;;;;39.13;25.17;;;;;;;-146.27;86.59;80901.97;5041254;28;20045;-68
2023/09/18 01:32:58;;;;;;;41.65;21.98;;;;;;;-146.27;86.51;80897.94;5038798;28;20031;-68
2023/09/18 01:35:29;;;;;;;35.40;22.92;;;;;;;-146.27;86.43;80905.97;5040522;28;20075;-68
2023/09/18 01:37:56;;;;;;;37.25;25.35;;;;;;;-146.27;86.40;80887.91;5045192;28;20369;-68
2023/09/18 01:40:23;;;;;;;38.95;25.42;;;;;;;-146.27;86.43;80867.81;5049914;28;20024;-67
2023/09/18 01:42:48;;;;;;;35.58;22.77;;;;;;;-146.27;86.44;80922.03;5045273;28;20036;-67
2023/09/18 01:45:14;;;;;;;37.35;24.60;;;;;;;-146.27;86.26;80891.94;5042372;28;20033;-68
2023/09/18 01:47:39;;;;;;;41.85;23.65;;;;;;;-146.27;86.24;80908.00;5048152;28;20688;-66
2023/09/18 01:50:05;;;;;;;36.22;24.80;;;;;;;-146.27;86.21;80885.91;5044348;28;20053;-67
2023/09/18 01:52:31;;;;;;;32.45;21.20;;;;;;;-146.27;86.29;80926.06;5039722;28;20036;-67
2023/09/18 01:54:56;;;;;;;36.42;23.65;;;;;;;-146.27;86.24;80899.97;5037855;28;20032;-69
2023/09/18 01:57:21;;;;;;;35.80;24.85;;;;;;;-146.27;86.28;80922.03;5043162;28;20056;-69
2023/09/18 01:59:47;;;;;;;38.83;24.30;;;;;;;-146.27;86.60;80938.09;5047212;28;20032;-68
2023/09/18 02:02:12;;;;;;;35.67;24.17;;;;;;;-146.27;86.55;80934.09;5045236;28;20052;-69
2023/09/18 02:04:39;;;;;;;41.30;23.60;;;;;;;-146.27;86.37;80960.19;5040682;28;20033;-68
2023/09/18 02:07:05;;;;;;;36.00;23.35;;;;;;;-146.27;86.51;80881.88;5044676;28;20434;-68
2023/09/18 02:09:31;;;;;;;33.10;23.83;;;;;;;-146.27;86.60;80946.13;5045535;28;20473;-68
2023/09/18 02:11:56;;;;;;;36.28;22.17;;;;;;;-146.27;86.41;80879.88;5045569;28;20061;-68
2023/09/18 02:14:21;;;;;;;33.45;23.15;;;;;;;-146.27;86.89;80918.03;5046186;28;20033;-69
2023/09/18 02:16:47;;;;;;;33.33;23.13;;;;;;;-146.27;87.11;80942.13;5034639;28;20109;-68
2023/09/18 02:19:13;;;;;;;36.17;24.33;;;;;;;-146.27;87.18;80918.03;5043644;28;20033;-68
2023/09/18 02:21:39;;;;;;;35.38;21.92;;;;;;;-146.27;87.09;80914.00;5048829;28;20100;-69
2023/09/18 02:24:05;;;;;;;36.03;22.70;;;;;;;-146.27;86.78;80922.03;5043645;28;20025;-68
2023/09/18 02:26:31;;;;;;;36.25;23.63;;;;;;;-146.27;86.83;80905.97;5041546;28;20029;-68
2023/09/18 02:29:01;;;;;;;34.63;22.48;;;;;;;-146.27;86.70;80914.00;5050128;28;20074;-68
2023/09/18 02:31:27;;;;;;;31.35;21.25;;;;;;;-146.27;86.81;80918.03;5044240;28;20029;-68
2023/09/18 02:33:52;;;;;;;32.80;22.33;;;;;;;-146.27;86.92;80893.94;5043240;28;20074;-68
2023/09/18 02:36:17;;;;;;;33.70;21.38;;;;;;;-146.27;86.67;80893.94;5043814;28;20053;-68
2023/09/18 02:38:43;;;;;;;34.17;23.52;;;;;;;-146.27;86.67;80871.84;5041365;28;20061;-68
2023/09/18 02:41:09;;;;;;;36.47;24.08;;;;;;;-146.27;86.83;80893.94;5048612;28;20093;-69
2023/09/18 02:43:34;;;;;;;37.35;22.20;;;;;;;-146.27;86.96;80895.94;5049004;28;20052;-68
2023/09/18 02:45:59;;;;;;;33.42;21.95;;;;;;;-146.27;86.70;80899.97;5035779;28;20029;-69
2023/09/18 02:48:25;;;;;;;34.42;22.50;;;;;;;-146.27;86.94;80905.97;5051274;28;20032;-68
2023/09/18 02:50:50;;;;;;;33.03;22.80;;;;;;;-146.27;86.89;80905.97;5041290;28;20435;-68
2023/09/18 02:53:21;;;;;;;37.70;23.23;;;;;;;-146.27;86.97;80885.91;5043305;28;20033;-68
2023/09/18 02:55:49;;;;;;;32.88;21.85;;;;;;;-146.27;87.01;80926.06;5050735;28;20040;-69
2023/09/18 02:58:16;;;;;;;34.75;21.85;;;;;;;-146.27;87.21;80905.97;5046462;28;20036;-68
2023/09/18 03:00:46;;;;;;;34.05;22.60;;;;;;;-146.27;87.01;80865.81;5047383;28;20021;-69
2023/09/18 03:03:12;;;;;;;34.55;22.33;;;;;;;-146.27;86.92;80914.00;5041846;28;20022;-68
2023/09/18 03:05:39;;;;;;;35.63;23.13;;;;;;;-146.27;87.29;80942.13;5042214;28;20527;-68
2023/09/18 03:08:04;;;;;;;34.08;21.50;;;;;;;-146.27;87.27;80962.22;5047288;28;20021;-68
2023/09/18 03:10:34;;;;;;;30.90;22.77;;;;;;;-146.27;87.16;80950.16;5045304;28;20048;-69
2023/09/18 03:13:00;;;;;;;39.40;24.40;;;;;;;-146.27;86.92;80948.16;5048185;28;20537;-69
2023/09/18 03:15:26;;;;;;;37.78;24.83;;;;;;;-146.27;87.10;80990.31;5051703;28;20041;-68
2023/09/18 03:17:51;;;;;;;34.90;22.45;;;;;;;-146.27;87.10;80954.19;5042763;28;20025;-69
2023/09/18 03:20:16;;;;;;;35.47;22.65;;;;;;;-146.27;87.35;81012.41;5037992;28;20025;-68
2023/09/18 03:22:42;;;;;;;33.90;22.83;;;;;;;-146.27;87.51;80986.31;5044048;28;20037;-71
2023/09/18 03:25:07;;;;;;;37.67;21.48;;;;;;;-146.27;87.38;80952.16;5045549;28;20024;-68
2023/09/18 03:27:32;;;;;;;31.10;21.20;;;;;;;-146.27;87.65;81002.38;5047047;28;20480;-69
2023/09/18 03:29:58;;;;;;;34.83;23.02;;;;;;;-146.27;88.35;81074.66;5043255;28;20021;-68
2023/09/18 03:32:24;;;;;;;36.33;23.98;;;;;;;-146.27;89.59;81120.84;5047597;28;20123;-69
2023/09/18 03:34:53;;;;;;;42.35;22.90;;;;;;;-146.27;90.23;81106.78;5042238;28;20599;-70
2023/09/18 03:37:18;;;;;;;34.38;20.92;;;;;;;-146.27;89.96;81088.72;5050203;28;20104;-68
2023/09/18 03:39:43;;;;;;;31.00;20.42;;;;;;;-146.27;89.91;81058.59;5042303;28;20147;-68
2023/09/18 03:42:09;;;;;;;31.85;20.10;;;;;;;-146.27;89.56;81034.50;5047834;28;20428;-68
2023/09/18 03:44:34;;;;;;;39.88;20.60;;;;;;;-146.27;88.48;80938.09;5041899;28;20496;-68
2023/09/18 03:47:00;;;;;;;32.97;20.08;;;;;;;-146.27;88.04;80905.97;5043047;28;20526;-68
2023/09/18 03:49:27;;;;;;;28.13;19.70;;;;;;;-146.27;88.32;80903.97;5034411;28;20063;-69
2023/09/18 03:51:52;;;;;;;36.22;20.75;;;;;;;-146.27;87.65;80905.97;5051215;28;20424;-69
2023/09/18 03:54:18;;;;;;;30.33;18.60;;;;;;;-146.27;90.00;81010.41;5043818;28;20017;-68
2023/09/18 03:56:43;;;;;;;32.50;18.98;;;;;;;-146.27;90.76;81032.50;5037142;28;20025;-69
2023/09/18 03:59:08;;;;;;;30.75;19.15;;;;;;;-146.27;91.05;81052.56;5036918;28;20025;-69
2023/09/18 04:01:34;;;;;;;33.42;18.92;;;;;;;-146.27;91.21;81062.59;5047894;28;20025;-68
2023/09/18 04:04:00;;;;;;;28.73;16.83;;;;;;;-146.27;92.12;81076.66;5036779;28;20028;-69
2023/09/18 04:06:36;;;;;;;29.27;17.05;;;;;;;-146.27;92.88;81098.75;5042492;28;20025;-69
2023/09/18 04:09:02;;;;;;;23.45;15.15;;;;;;;-146.27;93.30;81064.63;5048801;28;20048;-69
2023/09/18 04:11:28;;;;;;;24.50;12.68;;;;;;;-146.27;92.57;81068.63;5069901;28;20029;-69
2023/09/18 04:13:53;;;;;;;15.65;8.90;;;;;;;-146.27;94.03;81134.91;5035486;28;20032;-69
2023/09/18 04:16:19;;;;;;;13.45;8.07;;;;;;;-146.27;93.56;81116.84;5045211;28;20033;-68
2023/09/18 04:18:44;;;;;;;12.90;8.40;;;;;;;-146.27;92.77;81052.56;5048775;28;20033;-68
2023/09/18 04:21:10;;;;;;;17.30;9.55;;;;;;;-146.27;93.82;81138.91;5044065;28;20020;-68
2023/09/18 04:23:36;;;;;;;18.23;10.15;;;;;;;-146.27;94.09;81106.78;5047683;28;20037;-69
2023/09/18 04:26:02;;;;;;;17.52;10.23;;;;;;;-146.27;93.54;81082.69;5035467;28;20449;-68
2023/09/18 04:28:27;;;;;;;17.08;9.90;;;;;;;-146.27;93.43;81058.59;5042021;28;20151;-69
2023/09/18 04:30:52;;;;;;;18.98;11.10;;;;;;;-146.27;92.84;81060.59;5044055;28;20123;-69
2023/09/18 04:33:18;;;;;;;21.88;11.25;;;;;;;-146.27;92.66;81018.44;5044470;28;20052;-69
2023/09/18 04:35:44;;;;;;;20.50;12.05;;;;;;;-146.27;92.48;81004.38;5041535;28;20408;-69
2023/09/18 04:38:10;;;;;;;23.70;12.05;;;;;;;-146.27;92.56;81030.47;5043642;28;20086;-68
2023/09/18 04:40:36;;;;;;;18.95;11.90;;;;;;;-146.27;92.43;81022.44;5047838;28;20468;-68
2023/09/18 04:43:04;;;;;;;22.17;12.93;;;;;;;-146.27;92.31;81062.59;5048595;28;20017;-68
2023/09/18 04:45:30;;;;;;;19.63;12.48;;;;;;;-146.27;92.68;81022.44;5047586;28;20021;-69
2023/09/18 04:47:56;;;;;;;21.90;12.82;;;;;;;-146.27;92.63;80958.19;5035941;28;20048;-69
2023/09/18 04:50:22;;;;;;;20.58;12.32;;;;;;;-146.27;92.47;81002.38;5041821;28;20781;-68
2023/09/18 04:52:47;;;;;;;22.75;13.05;;;;;;;-146.27;92.94;81026.47;5039089;28;20643;-69
2023/09/18 04:55:13;;;;;;;22.13;12.00;;;;;;;-146.27;93.16;81098.75;5035133;28;20025;-69
2023/09/18 04:57:38;;;;;;;17.80;11.52;;;;;;;-146.27;92.82;81004.38;5036841;28;20481;-68
2023/09/18 05:00:08;;;;;;;20.48;11.82;;;;;;;-146.27;93.09;81014.41;5035684;28;20138;-68
2023/09/18 05:02:34;;;;;;;21.95;12.10;;;;;;;-146.27;93.29;81074.66;5037652;28;20071;-68
2023/09/18 05:05:00;;;;;;;18.45;12.25;;;;;;;-146.27;92.99;81066.63;5035335;28;20519;-68
2023/09/18 05:07:26;;;;;;;20.70;11.90;;;;;;;-146.27;93.30;81066.63;5036840;28;20033;-70
2023/09/18 05:09:51;;;;;;;23.17;12.07;;;;;;;-146.27;93.45;81080.69;5034960;28;20037;-67
2023/09/18 05:12:17;;;;;;;21.40;12.98;;;;;;;-146.27;93.17;80978.28;5037451;28;20025;-67
2023/09/18 05:14:43;;;;;;;24.63;12.05;;;;;;;-146.27;93.04;81062.59;5038885;28;20055;-68
2023/09/18 05:17:15;;;;;;;24.10;13.23;;;;;;;-146.27;94.04;81066.63;5046484;28;20035;-68
2023/09/18 05:19:40;;;;;;;25.02;13.48;;;;;;;-146.27;94.00;81058.59;5043362;28;20040;-68
2023/09/18 05:22:07;;;;;;;25.75;14.55;;;;;;;-146.27;94.16;81030.47;5039716;28;20025;-69
2023/09/18 05:24:33;;;;;;;31.20;15.45;;;;;;;-146.27;94.14;81054.56;5039870;28;20401;-68
2023/09/18 05:26:58;;;;;;;30.80;15.73;;;;;;;-146.27;93.55;81002.38;5045490;28;20027;-68
2023/09/18 05:29:24;;;;;;;27.65;15.02;;;;;;;-146.27;93.84;81014.41;5038504;28;20032;-68
2023/09/18 05:31:49;;;;;;;27.45;15.07;;;;;;;-146.27;93.90;81092.72;5037732;28;20044;-68
2023/09/18 05:34:14;;;;;;;23.00;15.05;;;;;;;-146.27;94.13;81026.47;5044038;28;20063;-68
2023/09/18 05:36:40;;;;;;;27.38;15.07;;;;;;;-146.27;93.68;81034.50;5042247;28;20017;-69
2023/09/18 05:39:10;;;;;;;25.15;14.80;;;;;;;-146.27;93.06;81014.41;5045694;28;20033;-68
2023/09/18 05:41:37;;;;;;;24.88;13.38;;;;;;;-146.27;92.80;80970.25;5040755;28;20497;-68
2023/09/18 05:44:04;;;;;;;25.60;13.90;;;;;;;-146.27;92.42;80994.34;5039672;28;20109;-68
2023/09/18 05:46:30;;;;;;;23.05;13.98;;;;;;;-146.27;92.82;80952.16;5037287;28;20047;-69
2023/09/18 05:48:57;;;;;;;27.02;14.25;;;;;;;-146.27;92.49;80990.31;5042630;28;20040;-68
2023/09/18 05:51:23;;;;;;;24.70;13.45;;;;;;;-146.27;92.42;80962.22;5049638;28;20029;-68
2023/09/18 05:53:48;;;;;;;27.77;13.65;;;;;;;-146.27;92.63;80976.25;5051194;28;20076;-68
2023/09/18 05:56:16;;;;;;;27.38;14.68;;;;;;;-146.27;92.66;80962.22;5048310;28;20047;-66
2023/09/18 05:58:42;;;;;;;29.00;13.88;;;;;;;-146.27;92.68;80982.28;5039989;28;20033;-69
2023/09/18 06:01:07;;;;;;;25.35;13.55;;;;;;;-146.27;93.03;81034.50;5055618;28;20111;-68
2023/09/18 06:03:35;;;;;;;23.63;14.32;;;;;;;-146.27;92.91;81014.41;5044874;28;20016;-69
2023/09/18 06:06:01;;;;;;;25.30;14.07;;;;;;;-146.27;92.61;81002.38;5052114;28;20523;-67
2023/09/18 06:08:28;;;;;;;27.70;15.75;;;;;;;-146.27;92.82;81010.41;5052262;28;20028;-69
2023/09/18 06:10:55;;;;;;;28.77;15.70;;;;;;;-146.27;92.60;80982.28;5047369;28;20033;-68
2023/09/18 06:13:20;;;;;;;28.83;15.77;;;;;;;-146.27;92.91;81010.41;5049476;28;20112;-68
2023/09/18 06:15:46;;;;;;;33.20;17.73;;;;;;;-146.27;92.82;80988.31;5047402;28;20144;-68
2023/09/18 06:18:11;;;;;;;32.63;17.70;;;;;;;-146.27;93.39;81014.41;5042723;28;20082;-68
2023/09/18 06:20:37;;;;;;;32.78;17.50;;;;;;;-146.27;93.81;81018.44;5053501;28;20029;-69
2023/09/18 06:23:03;;;;;;;33.13;18.70;;;;;;;-146.27;94.04;81002.38;5045211;28;20025;-68
2023/09/18 06:25:31;;;;;;;34.47;19.23;;;;;;;-146.27;93.71;80978.28;5051879;28;20029;-68
2023/09/18 06:27:56;;;;;;;39.08;19.60;;;;;;;-146.27;93.87;81000.34;5049519;28;20078;-68
2023/09/18 06:30:22;;;;;;;36.30;20.40;;;;;;;-146.27;93.49;80994.34;5046230;28;20036;-68
2023/09/18 06:32:47;;;;;;;35.92;19.00;;;;;;;-146.27;93.41;80992.31;5047296;28;20025;-69
2023/09/18 06:35:13;;;;;;;33.50;19.30;;;;;;;-146.27;93.87;81102.78;5044885;28;20033;-69
2023/09/18 06:37:38;;;;;;;37.92;19.30;;;;;;;-146.27;93.36;80950.16;5044263;28;20397;-68
2023/09/18 06:40:05;;;;;;;34.30;18.42;;;;;;;-146.27;93.00;80966.22;5044012;28;20029;-69
2023/09/18 06:42:30;;;;;;;28.20;16.45;;;;;;;-146.27;93.65;81054.56;5049945;28;20162;-68
2023/09/18 06:44:56;;;;;;;31.95;15.90;;;;;;;-146.27;93.59;81054.56;5052675;28;20037;-68
2023/09/18 06:47:21;;;;;;;20.02;12.82;;;;;;;-146.27;93.99;81116.84;5051840;28;20025;-68
2023/09/18 06:49:47;;;;;;;25.88;11.93;;;;;;;-146.27;93.96;81134.91;5051689;28;20078;-68
2023/09/18 06:52:12;;;;;;;21.20;11.73;;;;;;;-146.27;92.77;81018.44;5051449;28;20112;-68
2023/09/18 06:54:38;;;;;;;18.25;10.77;;;;;;;-146.27;92.57;81058.59;5051087;28;20366;-69
2023/09/18 06:57:04;;;;;;;21.38;10.40;;;;;;;-146.27;92.52;81014.41;5050698;28;20055;-68
2023/09/18 06:59:29;;;;;;;13.82;9.10;;;;;;;-146.27;92.65;81072.66;5051781;28;20028;-69
2023/09/18 07:01:55;;;;;;;16.73;9.68;;;;;;;-146.27;91.96;81018.44;5052069;28;20029;-68
2023/09/18 07:04:21;;;;;;;14.40;9.40;;;;;;;-146.27;91.76;81014.41;5049070;28;20036;-70
2023/09/18 07:06:46;;;;;;;15.85;8.95;;;;;;;-146.27;92.01;81074.66;5052451;28;20024;-68
2023/09/18 07:09:12;;;;;;;15.05;7.65;;;;;;;-146.27;92.59;81148.97;5046587;28;20033;-68
2023/09/18 07:11:38;;;;;;;12.20;6.85;;;;;;;-146.27;92.37;81157.00;5052714;28;20040;-68
2023/09/18 07:14:05;;;;;;;16.25;5.95;;;;;;;-146.27;92.60;81187.13;5051967;28;20503;-69
2023/09/18 07:16:31;;;;;;;10.20;5.82;;;;;;;-146.27;91.92;81203.19;5051233;28;20123;-68
2023/09/18 07:18:56;;;;;;;7.65;5.18;;;;;;;-146.27;91.77;81199.16;5049440;28;20140;-67
2023/09/18 07:21:21;;;;;;;10.50;5.43;;;;;;;-146.27;90.57;81150.97;5049043;28;20484;-69
2023/09/18 07:23:47;;;;;;;10.27;5.05;;;;;;;-146.27;90.56;81078.69;5039542;28;20164;-69
2023/09/18 07:26:13;;;;;;;7.35;4.63;;;;;;;-146.27;90.63;81062.59;5051330;28;20437;-69
2023/09/18 07:28:38;;;;;;;9.82;4.90;;;;;;;-146.27;90.76;81189.13;5053588;28;20060;-68
2023/09/18 07:31:08;;;;;;;6.47;4.45;;;;;;;-146.27;89.72;81038.50;5045494;28;20053;-68
2023/09/18 07:33:34;;;;;;;7.68;5.35;;;;;;;-146.27;90.22;81100.75;5032162;28;20055;-67
2023/09/18 07:36:00;;;;;;;6.78;4.80;;;;;;;-146.27;89.79;81096.75;5037420;28;20017;-68
2023/09/18 07:38:25;;;;;;;10.18;4.80;;;;;;;-146.27;90.35;81155.00;5052705;28;20045;-68
2023/09/18 07:40:51;;;;;;;7.15;4.90;;;;;;;-146.27;90.35;81118.84;5038097;28;20448;-68
2023/09/18 07:43:16;;;;;;;8.43;5.15;;;;;;;-146.27;89.93;81094.75;5053301;28;20891;-68
2023/09/18 07:45:42;;;;;;;8.60;5.03;;;;;;;-146.27;90.32;81175.06;5056063;28;20099;-68
2023/09/18 07:48:07;;;;;;;9.27;5.28;;;;;;;-146.27;90.50;81106.78;5047837;28;20024;-69
2023/09/18 07:50:34;;;;;;;8.43;5.60;;;;;;;-146.27;90.32;81104.78;5051946;28;20370;-67
2023/09/18 07:53:00;;;;;;;9.65;5.60;;;;;;;-146.27;90.03;81086.72;5052519;28;20658;-69
2023/09/18 07:55:26;;;;;;;9.23;5.43;;;;;;;-146.27;90.15;81066.63;5050430;28;20499;-68
2023/09/18 07:57:51;;;;;;;9.93;5.50;;;;;;;-146.27;90.05;81046.53;5046484;28;20018;-67
2023/09/18 08:00:18;;;;;;;9.30;5.22;;;;;;;-146.27;89.94;81054.56;5043111;28;20082;-67
2023/09/18 08:02:44;;;;;;;7.65;5.00;;;;;;;-146.27;89.48;80926.06;5051058;28;20047;-69
2023/09/18 08:05:10;;;;;;;12.90;4.65;;;;;;;-146.27;89.54;80968.22;5051147;28;20473;-66
2023/09/18 08:07:38;;;;;;;9.73;4.53;;;;;;;-146.27;89.46;80926.06;5051331;28;20047;-68
2023/09/18 08:10:08;;;;;;;8.70;3.88;;;;;;;-146.27;89.16;81000.34;5039816;28;20087;-68
2023/09/18 08:12:34;;;;;;;6.35;3.60;;;;;;;-146.27;88.98;80946.13;5043941;28;20056;-68
2023/09/18 08:15:00;;;;;;;6.53;2.83;;;;;;;-146.27;88.28;80976.25;5039879;28;20223;-68
2023/09/18 08:17:26;;;;;;;8.02;3.08;;;;;;;-146.27;87.57;81030.47;5044070;28;20454;-67
2023/09/18 08:19:52;;;;;;;5.60;3.17;;;;;;;-146.27;87.28;80853.78;5040852;28;20025;-68
2023/09/18 08:22:19;;;;;;;8.45;3.60;;;;;;;-146.27;86.97;80881.88;5047138;28;20566;-68
2023/09/18 08:24:45;;;;;;;5.60;2.72;;;;;;;-146.27;86.48;80934.09;5051502;28;20017;-68
2023/09/18 08:27:11;;;;;;;5.10;3.00;;;;;;;-146.27;85.76;80883.88;5051294;28;20053;-68
2023/09/18 08:29:37;;;;;;;6.43;2.45;;;;;;;-146.27;84.85;80924.06;5048147;28;20029;-68
2023/09/18 08:32:02;;;;;;;7.60;2.95;;;;;;;-146.27;84.59;80871.84;5043124;28;20029;-68
2023/09/18 08:34:28;;;;;;;7.35;3.60;;;;;;;-146.27;84.56;80893.94;5066297;28;20040;-68
2023/09/18 08:36:53;;;;;;;11.50;3.38;;;;;;;-146.27;84.65;80845.75;5046571;28;20029;-68
2023/09/18 08:39:20;;;;;;;7.28;2.50;;;;;;;-146.27;84.06;80869.84;5048685;28;20119;-67
2023/09/18 08:41:50;;;;;;;3.53;2.42;;;;;;;-146.27;83.41;80755.38;5043630;28;20037;-68
2023/09/18 08:44:17;;;;;;;7.85;3.20;;;;;;;-146.27;83.43;80781.47;5049146;28;20499;-67
2023/09/18 08:46:43;;;;;;;6.72;2.55;;;;;;;-146.27;82.55;80769.44;5041183;28;20017;-69
2023/09/18 08:49:10;;;;;;;8.38;3.13;;;;;;;-146.27;83.49;80966.22;5040012;28;20091;-68
2023/09/18 08:51:36;;;;;;;9.95;3.72;;;;;;;-146.27;82.95;80932.09;5048100;28;20400;-68
2023/09/18 08:54:04;;;;;;;6.05;3.15;;;;;;;-146.27;82.49;80805.56;5039125;28;20025;-68
2023/09/18 08:56:31;;;;;;;3.13;2.72;;;;;;;-146.27;82.08;80829.69;5048295;28;20047;-70
2023/09/18 08:58:57;;;;;;;4.22;2.85;;;;;;;-146.27;81.36;80837.72;5041973;28;20032;-70
2023/09/18 09:01:22;;;;;;;5.57;2.60;;;;;;;-146.27;82.08;80897.94;5037300;28;20032;-69
2023/09/18 09:03:48;;;;;;;4.38;2.78;;;;;;;-146.27;81.77;80934.09;5044813;28;20111;-69
2023/09/18 09:06:14;;;;;;;9.98;2.80;;;;;;;-146.27;82.14;80841.72;5040886;28;20068;-70
2023/09/18 09:08:40;;;;;;;6.13;2.60;;;;;;;-146.27;82.19;81000.34;5042880;28;20374;-70
2023/09/18 09:11:06;;;;;;;4.47;3.33;;;;;;;-146.27;81.66;80837.72;5031463;28;20044;-70
2023/09/18 09:13:31;;;;;;;6.68;2.83;;;;;;;-146.27;81.29;80805.56;5047227;28;20393;-70
2023/09/18 09:15:58;;;;;;;5.68;2.85;;;;;;;-146.27;81.53;80897.94;5042592;28;20116;-70
2023/09/18 09:18:28;;;;;;;4.82;3.25;;;;;;;-146.27;80.98;80905.97;5047020;28;20531;-70
2023/09/18 09:20:57;;;;;;;6.63;3.00;;;;;;;-146.27;81.12;80795.53;5037937;28;20664;-72
2023/09/18 09:23:23;;;;;;;3.10;2.72;;;;;;;-146.27;79.90;80873.84;5048356;28;20021;-70
2023/09/18 09:25:49;;;;;;;5.13;2.88;;;;;;;-146.27;78.75;80829.69;5050259;28;20035;-70
2023/09/18 09:28:14;;;;;;;6.07;3.08;;;;;;;-146.27;79.10;80829.69;5048433;28;20602;-70
2023/09/18 09:30:39;;;;;;;3.55;2.70;;;;;;;-146.27;78.87;80877.88;5045262;28;20033;-70
2023/09/18 09:33:07;;;;;;;5.65;2.58;;;;;;;-146.27;78.13;80721.25;5048634;28;20075;-70
2023/09/18 09:35:35;;;;;;;6.05;2.40;;;;;;;-146.27;77.23;80914.00;5050782;28;20021;-69
2023/09/18 09:38:07;;;;;;;5.72;2.65;;;;;;;-146.27;76.04;80723.25;5053728;28;20056;-70
2023/09/18 09:40:33;;;;;;;3.38;2.53;;;;;;;-146.27;76.29;80695.13;5057166;28;20037;-70
2023/09/18 09:43:01;;;;;;;3.15;2.03;;;;;;;-146.27;75.37;80562.63;5066019;28;20048;-70
2023/09/18 09:45:40;;;;;;;3.83;2.30;;;;;;;-146.27;75.22;80604.78;5035225;28;20029;-70
2023/09/18 09:48:07;;;;;;;4.32;2.35;;;;;;;-146.27;75.92;80576.66;5034116;28;20056;-71
2023/09/18 09:50:33;;;;;;;3.30;2.22;;;;;;;-146.27;75.32;80540.53;5051172;28;20032;-69
2023/09/18 09:52:59;;;;;;;5.15;2.40;;;;;;;-146.27;74.56;80492.34;5060488;28;20028;-70
2023/09/18 09:55:30;;;;;;;5.35;2.50;;;;;;;-146.27;74.08;80538.53;5045854;28;20103;-71
2023/09/18 09:58:02;;;;;;;4.80;2.50;;;;;;;-146.27;73.74;80522.47;5035318;28;20291;-69
2023/09/18 10:00:33;;;;;;;3.33;2.67;;;;;;;-146.27;73.24;80478.28;5056000;28;20025;-70
2023/09/18 10:03:04;;;;;;;3.35;2.75;;;;;;;-146.27;73.72;80584.69;5053067;28;20362;-71
2023/09/18 10:05:36;;;;;;;5.43;2.65;;;;;;;-146.27;73.45;80520.44;5050504;28;20727;-70
2023/09/18 10:08:11;;;;;;;2.90;2.60;;;;;;;-146.27;73.57;80536.50;5053551;28;20025;-72
2023/09/18 10:10:40;;;;;;;6.00;2.72;;;;;;;-146.27;73.00;80526.47;5055497;28;20429;-69
2023/09/18 10:13:31;;;;;;;4.85;2.70;;;;;;;-146.27;72.35;80600.75;5043013;28;20021;-70
2023/09/18 10:16:00;;;;;;;5.53;3.03;;;;;;;-146.27;72.29;80568.63;5053123;28;20098;-70
2023/09/18 10:18:37;;;;;;;5.07;2.88;;;;;;;-146.27;71.44;80576.66;5053906;28;20019;-69
2023/09/18 10:21:14;;;;;;;3.42;2.47;;;;;;;-146.27;71.97;80420.06;5038611;28;20128;-70
2023/09/18 10:23:53;;;;;;;5.53;2.90;;;;;;;-146.27;70.45;80335.72;5038772;28;20025;-70
2023/09/18 10:26:28;;;;;;;5.55;2.90;;;;;;;-146.27;71.76;80550.56;5045435;28;20021;-70
2023/09/18 10:28:58;;;;;;;6.78;3.60;;;;;;;-146.27;72.31;80610.81;5050866;28;20032;-71
2023/09/18 10:31:25;;;;;;;3.63;2.58;;;;;;;-146.27;71.82;80486.31;5046535;28;20393;-71
2023/09/18 10:33:53;;;;;;;5.82;2.78;;;;;;;-146.27;71.40;80572.66;5052144;28;20090;-70
2023/09/18 10:36:20;;;;;;;4.93;3.15;;;;;;;-146.27;70.70;80454.19;5061788;28;20032;-69
2023/09/18 10:38:51;;;;;;;5.07;2.45;;;;;;;-146.27;68.59;80408.00;5053860;28;20503;-71
2023/09/18 10:41:20;;;;;;;6.03;2.83;;;;;;;-146.27;68.44;80235.34;5053665;28;20550;-70
2023/09/18 10:43:47;;;;;;;7.43;2.67;;;;;;;-146.27;68.35;80171.09;5044512;28;20524;-71
2023/09/18 10:46:14;;;;;;;6.88;2.33;;;;;;;-146.27;65.50;80106.84;5052971;28;20017;-72
2023/09/18 10:48:42;;;;;;;5.22;2.03;;;;;;;-146.27;64.43;80175.13;5052045;28;20032;-70
2023/09/18 10:51:09;;;;;;;5.72;2.38;;;;;;;-146.27;63.83;80044.63;5052737;28;20055;-70
2023/09/18 10:53:35;;;;;;;5.60;2.38;;;;;;;-146.27;63.03;79906.09;5054333;28;20384;-70
2023/09/18 10:56:04;;;;;;;3.35;2.05;;;;;;;-146.27;63.96;79984.38;5072711;28;20024;-70
2023/09/18 10:58:30;;;;;;;5.00;2.00;;;;;;;-146.27;63.36;79833.81;5071219;28;20420;-71
2023/09/18 11:00:57;;;;;;;4.82;2.20;;;;;;;-146.27;61.12;79849.88;5052322;28;20040;-71
2023/09/18 11:03:23;;;;;;;6.43;2.40;;;;;;;-146.27;61.72;79910.09;5045452;28;20070;-71
2023/09/18 11:06:02;;;;;;;4.68;1.95;;;;;;;-146.27;62.02;79809.72;5037307;28;20064;-71